sensor_id;sensor_type;location;lat;lon;timestamp;P1;durP1;ratioP1;P2;durP2;ratioP2
9773;SDS011;4926;42.670;23.316;2023-07-13T00:01:06;9.05;;;6.03;;
9773;SDS011;4926;42.670;23.316;2023-07-13T00:03:35;9.40;;;5.47;;
9773;SDS011;4926;42.670;23.316;2023-07-13T00:06:01;7.90;;;5.53;;
9773;SDS011;4926;42.670;23.316;2023-07-13T00:08:30;9.25;;;5.70;;
9773;SDS011;4926;42.670;23.316;2023-07-13T00:10:58;6.50;;;5.20;;
9773;SDS011;4926;42.670;23.316;2023-07-13T00:13:24;10.60;;;5.35;;
9773;SDS011;4926;42.670;23.316;2023-07-13T00:15:51;7.88;;;5.65;;
9773;SDS011;4926;42.670;23.316;2023-07-13T00:18:20;6.95;;;5.40;;
9773;SDS011;4926;42.670;23.316;2023-07-13T00:20:47;8.20;;;5.15;;
9773;SDS011;4926;42.670;23.316;2023-07-13T00:23:14;8.82;;;5.43;;
9773;SDS011;4926;42.670;23.316;2023-07-13T00:25:42;10.38;;;5.57;;
9773;SDS011;4926;42.670;23.316;2023-07-13T00:28:08;7.85;;;6.30;;
9773;SDS011;4926;42.670;23.316;2023-07-13T00:30:35;10.63;;;6.18;;
9773;SDS011;4926;42.670;23.316;2023-07-13T00:33:02;12.52;;;6.50;;
9773;SDS011;4926;42.670;23.316;2023-07-13T00:35:33;7.90;;;6.70;;
9773;SDS011;4926;42.670;23.316;2023-07-13T00:38:00;11.85;;;7.50;;
9773;SDS011;4926;42.670;23.316;2023-07-13T00:40:27;12.43;;;7.50;;
9773;SDS011;4926;42.670;23.316;2023-07-13T00:42:57;11.52;;;7.25;;
9773;SDS011;4926;42.670;23.316;2023-07-13T00:48:36;13.02;;;6.53;;
9773;SDS011;4926;42.670;23.316;2023-07-13T00:51:06;10.05;;;7.13;;
9773;SDS011;4926;42.670;23.316;2023-07-13T00:53:33;9.38;;;6.20;;
9773;SDS011;4926;42.670;23.316;2023-07-13T00:56:02;10.80;;;6.72;;
9773;SDS011;4926;42.670;23.316;2023-07-13T00:58:31;8.68;;;6.70;;
9773;SDS011;4926;42.670;23.316;2023-07-13T01:00:58;8.48;;;6.03;;
9773;SDS011;4926;42.670;23.316;2023-07-13T01:03:24;10.82;;;5.90;;
9773;SDS011;4926;42.670;23.316;2023-07-13T01:05:51;9.23;;;6.30;;
9773;SDS011;4926;42.670;23.316;2023-07-13T01:08:20;8.73;;;6.20;;
9773;SDS011;4926;42.670;23.316;2023-07-13T01:10:53;10.80;;;6.55;;
9773;SDS011;4926;42.670;23.316;2023-07-13T01:13:21;10.45;;;6.97;;
9773;SDS011;4926;42.670;23.316;2023-07-13T01:15:49;12.32;;;7.03;;
9773;SDS011;4926;42.670;23.316;2023-07-13T01:18:24;10.68;;;7.13;;
9773;SDS011;4926;42.670;23.316;2023-07-13T01:20:55;16.45;;;7.00;;
9773;SDS011;4926;42.670;23.316;2023-07-13T01:23:22;9.50;;;7.32;;
9773;SDS011;4926;42.670;23.316;2023-07-13T01:25:52;9.07;;;6.78;;
9773;SDS011;4926;42.670;23.316;2023-07-13T01:28:20;10.27;;;6.57;;
9773;SDS011;4926;42.670;23.316;2023-07-13T01:30:48;10.35;;;6.47;;
9773;SDS011;4926;42.670;23.316;2023-07-13T01:33:15;11.38;;;6.85;;
9773;SDS011;4926;42.670;23.316;2023-07-13T01:35:45;10.45;;;6.82;;
9773;SDS011;4926;42.670;23.316;2023-07-13T01:38:15;7.97;;;6.97;;
9773;SDS011;4926;42.670;23.316;2023-07-13T01:40:43;10.82;;;6.68;;
9773;SDS011;4926;42.670;23.316;2023-07-13T01:43:12;6.80;;;6.15;;
9773;SDS011;4926;42.670;23.316;2023-07-13T01:45:42;10.48;;;6.30;;
9773;SDS011;4926;42.670;23.316;2023-07-13T01:48:14;10.45;;;6.70;;
9773;SDS011;4926;42.670;23.316;2023-07-13T01:50:47;9.70;;;6.97;;
9773;SDS011;4926;42.670;23.316;2023-07-13T01:53:16;14.88;;;7.40;;
9773;SDS011;4926;42.670;23.316;2023-07-13T01:55:43;8.13;;;6.20;;
9773;SDS011;4926;42.670;23.316;2023-07-13T01:58:09;8.52;;;6.05;;
9773;SDS011;4926;42.670;23.316;2023-07-13T02:00:36;8.40;;;6.50;;
9773;SDS011;4926;42.670;23.316;2023-07-13T02:03:03;10.43;;;5.95;;
9773;SDS011;4926;42.670;23.316;2023-07-13T02:05:30;8.85;;;6.47;;
9773;SDS011;4926;42.670;23.316;2023-07-13T02:07:57;13.85;;;6.93;;
9773;SDS011;4926;42.670;23.316;2023-07-13T02:10:25;10.85;;;5.82;;
9773;SDS011;4926;42.670;23.316;2023-07-13T02:12:53;9.98;;;5.90;;
9773;SDS011;4926;42.670;23.316;2023-07-13T02:15:20;9.52;;;6.78;;
9773;SDS011;4926;42.670;23.316;2023-07-13T02:17:46;12.05;;;6.88;;
9773;SDS011;4926;42.670;23.316;2023-07-13T02:20:13;8.80;;;5.68;;
9773;SDS011;4926;42.670;23.316;2023-07-13T02:22:42;12.82;;;6.88;;
9773;SDS011;4926;42.670;23.316;2023-07-13T02:25:12;9.18;;;6.32;;
9773;SDS011;4926;42.670;23.316;2023-07-13T02:27:42;14.55;;;7.00;;
9773;SDS011;4926;42.670;23.316;2023-07-13T02:30:09;9.50;;;6.30;;
9773;SDS011;4926;42.670;23.316;2023-07-13T02:32:37;8.45;;;6.13;;
9773;SDS011;4926;42.670;23.316;2023-07-13T02:35:06;9.27;;;6.60;;
9773;SDS011;4926;42.670;23.316;2023-07-13T02:37:35;8.45;;;6.50;;
9773;SDS011;4926;42.670;23.316;2023-07-13T02:40:02;8.60;;;6.18;;
9773;SDS011;4926;42.670;23.316;2023-07-13T02:42:33;9.05;;;6.32;;
9773;SDS011;4926;42.670;23.316;2023-07-13T02:45:02;7.75;;;6.70;;
9773;SDS011;4926;42.670;23.316;2023-07-13T02:47:31;10.27;;;7.20;;
9773;SDS011;4926;42.670;23.316;2023-07-13T02:49:58;11.55;;;6.75;;
9773;SDS011;4926;42.670;23.316;2023-07-13T02:52:25;8.60;;;6.80;;
9773;SDS011;4926;42.670;23.316;2023-07-13T02:54:53;11.95;;;7.13;;
9773;SDS011;4926;42.670;23.316;2023-07-13T02:57:24;11.20;;;6.82;;
9773;SDS011;4926;42.670;23.316;2023-07-13T02:59:52;13.43;;;7.28;;
9773;SDS011;4926;42.670;23.316;2023-07-13T03:02:20;8.93;;;6.65;;
9773;SDS011;4926;42.670;23.316;2023-07-13T03:04:47;7.57;;;6.57;;
9773;SDS011;4926;42.670;23.316;2023-07-13T03:07:15;11.57;;;6.95;;
9773;SDS011;4926;42.670;23.316;2023-07-13T03:09:41;13.48;;;6.82;;
9773;SDS011;4926;42.670;23.316;2023-07-13T03:12:08;8.98;;;6.57;;
9773;SDS011;4926;42.670;23.316;2023-07-13T03:14:35;9.82;;;6.70;;
9773;SDS011;4926;42.670;23.316;2023-07-13T03:17:01;11.07;;;7.20;;
9773;SDS011;4926;42.670;23.316;2023-07-13T03:19:32;11.73;;;7.43;;
9773;SDS011;4926;42.670;23.316;2023-07-13T03:21:58;10.40;;;8.20;;
9773;SDS011;4926;42.670;23.316;2023-07-13T03:24:25;9.02;;;7.70;;
9773;SDS011;4926;42.670;23.316;2023-07-13T03:26:52;17.10;;;8.20;;
9773;SDS011;4926;42.670;23.316;2023-07-13T03:29:20;9.23;;;7.95;;
9773;SDS011;4926;42.670;23.316;2023-07-13T03:31:50;11.10;;;7.03;;
9773;SDS011;4926;42.670;23.316;2023-07-13T03:34:16;9.23;;;8.23;;
9773;SDS011;4926;42.670;23.316;2023-07-13T03:36:47;14.25;;;8.95;;
9773;SDS011;4926;42.670;23.316;2023-07-13T03:39:15;10.70;;;8.35;;
9773;SDS011;4926;42.670;23.316;2023-07-13T03:41:42;10.40;;;7.90;;
9773;SDS011;4926;42.670;23.316;2023-07-13T03:44:13;12.00;;;7.80;;
9773;SDS011;4926;42.670;23.316;2023-07-13T03:46:41;10.20;;;7.68;;
9773;SDS011;4926;42.670;23.316;2023-07-13T03:49:08;8.77;;;7.55;;
9773;SDS011;4926;42.670;23.316;2023-07-13T03:51:35;11.27;;;7.70;;
9773;SDS011;4926;42.670;23.316;2023-07-13T03:54:03;8.93;;;7.68;;
9773;SDS011;4926;42.670;23.316;2023-07-13T03:56:31;11.05;;;7.43;;
9773;SDS011;4926;42.670;23.316;2023-07-13T03:58:58;13.73;;;7.25;;
9773;SDS011;4926;42.670;23.316;2023-07-13T04:01:28;8.80;;;7.63;;
9773;SDS011;4926;42.670;23.316;2023-07-13T04:03:56;11.43;;;8.40;;
9773;SDS011;4926;42.670;23.316;2023-07-13T04:06:26;17.95;;;11.25;;
9773;SDS011;4926;42.670;23.316;2023-07-13T04:08:57;12.98;;;10.20;;
9773;SDS011;4926;42.670;23.316;2023-07-13T04:11:28;10.57;;;8.25;;
9773;SDS011;4926;42.670;23.316;2023-07-13T04:13:56;11.35;;;9.32;;
9773;SDS011;4926;42.670;23.316;2023-07-13T04:16:26;12.40;;;8.93;;
9773;SDS011;4926;42.670;23.316;2023-07-13T04:18:56;12.30;;;9.15;;
9773;SDS011;4926;42.670;23.316;2023-07-13T04:21:25;10.02;;;8.80;;
9773;SDS011;4926;42.670;23.316;2023-07-13T04:23:52;10.90;;;9.38;;
9773;SDS011;4926;42.670;23.316;2023-07-13T04:26:19;16.42;;;9.80;;
9773;SDS011;4926;42.670;23.316;2023-07-13T04:28:49;12.98;;;10.30;;
9773;SDS011;4926;42.670;23.316;2023-07-13T04:31:16;13.93;;;10.07;;
9773;SDS011;4926;42.670;23.316;2023-07-13T04:33:43;11.57;;;10.38;;
9773;SDS011;4926;42.670;23.316;2023-07-13T04:36:10;12.52;;;10.00;;
9773;SDS011;4926;42.670;23.316;2023-07-13T04:38:37;11.75;;;10.35;;
9773;SDS011;4926;42.670;23.316;2023-07-13T04:41:04;14.43;;;10.77;;
9773;SDS011;4926;42.670;23.316;2023-07-13T04:43:32;13.38;;;10.80;;
9773;SDS011;4926;42.670;23.316;2023-07-13T04:46:04;12.02;;;10.55;;
9773;SDS011;4926;42.670;23.316;2023-07-13T04:48:32;14.18;;;10.50;;
9773;SDS011;4926;42.670;23.316;2023-07-13T04:50:59;17.17;;;11.05;;
9773;SDS011;4926;42.670;23.316;2023-07-13T04:53:26;15.60;;;10.20;;
9773;SDS011;4926;42.670;23.316;2023-07-13T04:55:59;16.33;;;11.38;;
9773;SDS011;4926;42.670;23.316;2023-07-13T04:58:26;13.07;;;10.65;;
9773;SDS011;4926;42.670;23.316;2023-07-13T05:00:53;12.50;;;11.30;;
9773;SDS011;4926;42.670;23.316;2023-07-13T05:03:26;15.68;;;11.05;;
9773;SDS011;4926;42.670;23.316;2023-07-13T05:05:56;12.25;;;10.77;;
9773;SDS011;4926;42.670;23.316;2023-07-13T05:08:30;16.25;;;10.55;;
9773;SDS011;4926;42.670;23.316;2023-07-13T05:10:58;13.48;;;11.35;;
9773;SDS011;4926;42.670;23.316;2023-07-13T05:13:30;13.60;;;11.90;;
9773;SDS011;4926;42.670;23.316;2023-07-13T05:15:57;14.43;;;12.60;;
9773;SDS011;4926;42.670;23.316;2023-07-13T05:18:32;15.15;;;11.90;;
9773;SDS011;4926;42.670;23.316;2023-07-13T05:21:00;14.13;;;12.48;;
9773;SDS011;4926;42.670;23.316;2023-07-13T05:23:28;12.95;;;11.40;;
9773;SDS011;4926;42.670;23.316;2023-07-13T05:25:56;14.63;;;11.70;;
9773;SDS011;4926;42.670;23.316;2023-07-13T05:28:27;16.25;;;12.68;;
9773;SDS011;4926;42.670;23.316;2023-07-13T05:30:54;15.63;;;12.00;;
9773;SDS011;4926;42.670;23.316;2023-07-13T05:33:23;16.75;;;11.73;;
9773;SDS011;4926;42.670;23.316;2023-07-13T05:35:54;12.68;;;10.70;;
9773;SDS011;4926;42.670;23.316;2023-07-13T05:38:21;13.68;;;11.80;;
9773;SDS011;4926;42.670;23.316;2023-07-13T05:40:53;14.63;;;11.93;;
9773;SDS011;4926;42.670;23.316;2023-07-13T05:43:20;15.05;;;11.18;;
9773;SDS011;4926;42.670;23.316;2023-07-13T05:45:50;16.10;;;11.23;;
9773;SDS011;4926;42.670;23.316;2023-07-13T05:48:18;15.80;;;12.60;;
9773;SDS011;4926;42.670;23.316;2023-07-13T05:50:47;13.00;;;11.52;;
9773;SDS011;4926;42.670;23.316;2023-07-13T05:53:17;14.63;;;10.75;;
9773;SDS011;4926;42.670;23.316;2023-07-13T05:55:54;13.65;;;11.70;;
9773;SDS011;4926;42.670;23.316;2023-07-13T05:58:21;13.82;;;11.90;;
9773;SDS011;4926;42.670;23.316;2023-07-13T06:00:48;13.00;;;11.50;;
9773;SDS011;4926;42.670;23.316;2023-07-13T06:03:24;14.77;;;10.60;;
9773;SDS011;4926;42.670;23.316;2023-07-13T06:05:53;14.00;;;11.45;;
9773;SDS011;4926;42.670;23.316;2023-07-13T06:08:23;16.50;;;11.25;;
9773;SDS011;4926;42.670;23.316;2023-07-13T06:10:50;15.65;;;11.25;;
9773;SDS011;4926;42.670;23.316;2023-07-13T06:13:19;12.93;;;10.35;;
9773;SDS011;4926;42.670;23.316;2023-07-13T06:15:47;14.55;;;11.10;;
9773;SDS011;4926;42.670;23.316;2023-07-13T06:18:14;19.60;;;10.60;;
9773;SDS011;4926;42.670;23.316;2023-07-13T06:20:41;15.88;;;10.73;;
9773;SDS011;4926;42.670;23.316;2023-07-13T06:23:10;12.15;;;10.00;;
9773;SDS011;4926;42.670;23.316;2023-07-13T06:25:39;10.95;;;9.85;;
9773;SDS011;4926;42.670;23.316;2023-07-13T06:28:06;11.60;;;10.25;;
9773;SDS011;4926;42.670;23.316;2023-07-13T06:30:32;15.02;;;11.48;;
9773;SDS011;4926;42.670;23.316;2023-07-13T06:33:04;13.20;;;10.70;;
9773;SDS011;4926;42.670;23.316;2023-07-13T06:35:33;11.65;;;10.23;;
9773;SDS011;4926;42.670;23.316;2023-07-13T06:38:00;17.83;;;9.95;;
9773;SDS011;4926;42.670;23.316;2023-07-13T06:40:27;17.42;;;10.98;;
9773;SDS011;4926;42.670;23.316;2023-07-13T06:42:57;18.92;;;10.50;;
9773;SDS011;4926;42.670;23.316;2023-07-13T06:45:26;14.52;;;8.82;;
9773;SDS011;4926;42.670;23.316;2023-07-13T06:47:52;15.52;;;10.38;;
9773;SDS011;4926;42.670;23.316;2023-07-13T06:50:19;12.07;;;9.63;;
9773;SDS011;4926;42.670;23.316;2023-07-13T06:52:48;12.70;;;9.65;;
9773;SDS011;4926;42.670;23.316;2023-07-13T06:55:15;13.05;;;10.20;;
9773;SDS011;4926;42.670;23.316;2023-07-13T06:57:42;13.90;;;9.85;;
9773;SDS011;4926;42.670;23.316;2023-07-13T07:00:11;12.00;;;9.77;;
9773;SDS011;4926;42.670;23.316;2023-07-13T07:02:38;11.25;;;8.38;;
9773;SDS011;4926;42.670;23.316;2023-07-13T07:05:05;17.58;;;11.43;;
9773;SDS011;4926;42.670;23.316;2023-07-13T07:07:33;12.15;;;9.40;;
9773;SDS011;4926;42.670;23.316;2023-07-13T07:10:00;12.85;;;8.82;;
9773;SDS011;4926;42.670;23.316;2023-07-13T07:12:28;9.95;;;8.95;;
9773;SDS011;4926;42.670;23.316;2023-07-13T07:14:55;11.60;;;8.90;;
9773;SDS011;4926;42.670;23.316;2023-07-13T07:17:23;12.43;;;8.70;;
9773;SDS011;4926;42.670;23.316;2023-07-13T07:19:51;11.80;;;9.40;;
9773;SDS011;4926;42.670;23.316;2023-07-13T07:22:18;13.70;;;9.43;;
9773;SDS011;4926;42.670;23.316;2023-07-13T07:24:45;21.40;;;8.98;;
9773;SDS011;4926;42.670;23.316;2023-07-13T07:27:13;14.32;;;9.00;;
9773;SDS011;4926;42.670;23.316;2023-07-13T07:29:39;10.70;;;8.43;;
9773;SDS011;4926;42.670;23.316;2023-07-13T07:32:06;16.73;;;8.55;;
9773;SDS011;4926;42.670;23.316;2023-07-13T07:34:35;10.20;;;8.55;;
9773;SDS011;4926;42.670;23.316;2023-07-13T07:37:02;12.30;;;9.23;;
9773;SDS011;4926;42.670;23.316;2023-07-13T07:39:29;10.90;;;8.15;;
9773;SDS011;4926;42.670;23.316;2023-07-13T07:41:58;9.45;;;7.63;;
9773;SDS011;4926;42.670;23.316;2023-07-13T07:44:25;8.88;;;7.57;;
9773;SDS011;4926;42.670;23.316;2023-07-13T07:46:54;10.52;;;7.75;;
9773;SDS011;4926;42.670;23.316;2023-07-13T07:49:21;12.38;;;9.43;;
9773;SDS011;4926;42.670;23.316;2023-07-13T07:51:49;16.63;;;9.65;;
9773;SDS011;4926;42.670;23.316;2023-07-13T07:54:16;10.15;;;8.27;;
9773;SDS011;4926;42.670;23.316;2023-07-13T07:56:43;9.60;;;7.82;;
9773;SDS011;4926;42.670;23.316;2023-07-13T07:59:10;9.85;;;8.02;;
9773;SDS011;4926;42.670;23.316;2023-07-13T08:01:37;9.10;;;7.47;;
9773;SDS011;4926;42.670;23.316;2023-07-13T08:04:04;13.25;;;8.77;;
9773;SDS011;4926;42.670;23.316;2023-07-13T08:06:31;9.43;;;8.18;;
9773;SDS011;4926;42.670;23.316;2023-07-13T08:09:02;10.85;;;7.95;;
9773;SDS011;4926;42.670;23.316;2023-07-13T08:11:29;12.20;;;8.20;;
9773;SDS011;4926;42.670;23.316;2023-07-13T08:13:56;13.32;;;8.95;;
9773;SDS011;4926;42.670;23.316;2023-07-13T08:16:23;16.10;;;8.73;;
9773;SDS011;4926;42.670;23.316;2023-07-13T08:18:50;12.73;;;8.48;;
9773;SDS011;4926;42.670;23.316;2023-07-13T08:21:16;16.70;;;9.18;;
9773;SDS011;4926;42.670;23.316;2023-07-13T08:23:47;12.88;;;9.00;;
9773;SDS011;4926;42.670;23.316;2023-07-13T08:26:15;15.27;;;8.68;;
9773;SDS011;4926;42.670;23.316;2023-07-13T08:28:42;19.90;;;8.57;;
9773;SDS011;4926;42.670;23.316;2023-07-13T08:31:09;15.45;;;8.65;;
9773;SDS011;4926;42.670;23.316;2023-07-13T08:33:36;10.10;;;8.07;;
9773;SDS011;4926;42.670;23.316;2023-07-13T08:36:03;11.18;;;8.65;;
9773;SDS011;4926;42.670;23.316;2023-07-13T08:38:30;12.57;;;7.63;;
9773;SDS011;4926;42.670;23.316;2023-07-13T08:41:00;11.05;;;8.43;;
9773;SDS011;4926;42.670;23.316;2023-07-13T08:43:37;16.50;;;8.80;;
9773;SDS011;4926;42.670;23.316;2023-07-13T08:46:05;13.40;;;8.40;;
9773;SDS011;4926;42.670;23.316;2023-07-13T08:48:37;9.93;;;8.25;;
9773;SDS011;4926;42.670;23.316;2023-07-13T08:51:26;10.10;;;7.80;;
9773;SDS011;4926;42.670;23.316;2023-07-13T08:54:03;15.13;;;9.57;;
9773;SDS011;4926;42.670;23.316;2023-07-13T08:56:35;12.88;;;8.10;;
9773;SDS011;4926;42.670;23.316;2023-07-13T08:59:05;11.50;;;8.68;;
9773;SDS011;4926;42.670;23.316;2023-07-13T09:01:46;9.05;;;8.10;;
9773;SDS011;4926;42.670;23.316;2023-07-13T09:04:26;10.38;;;7.78;;
9773;SDS011;4926;42.670;23.316;2023-07-13T09:06:59;9.88;;;7.97;;
9773;SDS011;4926;42.670;23.316;2023-07-13T09:09:47;14.38;;;8.60;;
9773;SDS011;4926;42.670;23.316;2023-07-13T09:12:31;11.38;;;8.10;;
9773;SDS011;4926;42.670;23.316;2023-07-13T09:15:09;11.20;;;7.75;;
9773;SDS011;4926;42.670;23.316;2023-07-13T09:17:48;11.95;;;8.43;;
9773;SDS011;4926;42.670;23.316;2023-07-13T09:20:17;12.75;;;9.18;;
9773;SDS011;4926;42.670;23.316;2023-07-13T09:22:51;11.70;;;8.18;;
9773;SDS011;4926;42.670;23.316;2023-07-13T09:25:22;10.95;;;8.55;;
9773;SDS011;4926;42.670;23.316;2023-07-13T09:27:53;12.18;;;8.65;;
9773;SDS011;4926;42.670;23.316;2023-07-13T09:30:27;13.52;;;10.30;;
9773;SDS011;4926;42.670;23.316;2023-07-13T09:33:00;13.32;;;8.85;;
9773;SDS011;4926;42.670;23.316;2023-07-13T09:35:27;15.40;;;9.05;;
9773;SDS011;4926;42.670;23.316;2023-07-13T09:37:59;12.48;;;8.82;;
9773;SDS011;4926;42.670;23.316;2023-07-13T09:40:33;12.02;;;9.20;;
9773;SDS011;4926;42.670;23.316;2023-07-13T09:43:07;15.98;;;9.30;;
9773;SDS011;4926;42.670;23.316;2023-07-13T09:45:40;13.43;;;8.20;;
9773;SDS011;4926;42.670;23.316;2023-07-13T09:48:11;11.90;;;9.02;;
9773;SDS011;4926;42.670;23.316;2023-07-13T09:50:41;15.10;;;8.68;;
9773;SDS011;4926;42.670;23.316;2023-07-13T09:53:13;14.00;;;8.80;;
9773;SDS011;4926;42.670;23.316;2023-07-13T09:55:41;13.63;;;9.40;;
9773;SDS011;4926;42.670;23.316;2023-07-13T09:58:10;12.02;;;8.57;;
9773;SDS011;4926;42.670;23.316;2023-07-13T10:00:43;10.63;;;8.65;;
9773;SDS011;4926;42.670;23.316;2023-07-13T10:03:23;12.45;;;8.52;;
9773;SDS011;4926;42.670;23.316;2023-07-13T10:05:53;11.70;;;8.65;;
9773;SDS011;4926;42.670;23.316;2023-07-13T10:08:27;14.52;;;9.13;;
9773;SDS011;4926;42.670;23.316;2023-07-13T10:10:58;15.60;;;8.93;;
9773;SDS011;4926;42.670;23.316;2023-07-13T10:13:29;10.45;;;8.35;;
9773;SDS011;4926;42.670;23.316;2023-07-13T10:16:03;13.88;;;8.70;;
9773;SDS011;4926;42.670;23.316;2023-07-13T10:18:35;12.15;;;7.70;;
9773;SDS011;4926;42.670;23.316;2023-07-13T10:21:13;12.90;;;8.18;;
9773;SDS011;4926;42.670;23.316;2023-07-13T10:23:43;8.35;;;6.47;;
9773;SDS011;4926;42.670;23.316;2023-07-13T10:26:18;11.50;;;5.85;;
9773;SDS011;4926;42.670;23.316;2023-07-13T10:28:50;6.05;;;4.97;;
9773;SDS011;4926;42.670;23.316;2023-07-13T10:31:21;8.23;;;4.85;;
9773;SDS011;4926;42.670;23.316;2023-07-13T10:33:49;11.73;;;5.95;;
9773;SDS011;4926;42.670;23.316;2023-07-13T10:36:22;8.50;;;5.05;;
9773;SDS011;4926;42.670;23.316;2023-07-13T10:38:57;6.78;;;5.35;;
9773;SDS011;4926;42.670;23.316;2023-07-13T10:41:26;10.10;;;5.35;;
9773;SDS011;4926;42.670;23.316;2023-07-13T10:43:56;8.20;;;4.80;;
9773;SDS011;4926;42.670;23.316;2023-07-13T10:46:26;9.05;;;5.72;;
9773;SDS011;4926;42.670;23.316;2023-07-13T10:48:56;7.97;;;5.18;;
9773;SDS011;4926;42.670;23.316;2023-07-13T10:51:26;12.80;;;5.75;;
9773;SDS011;4926;42.670;23.316;2023-07-13T10:54:17;8.07;;;5.43;;
9773;SDS011;4926;42.670;23.316;2023-07-13T10:56:52;13.32;;;5.10;;
9773;SDS011;4926;42.670;23.316;2023-07-13T10:59:33;12.50;;;5.85;;
9773;SDS011;4926;42.670;23.316;2023-07-13T11:02:05;9.20;;;5.20;;
9773;SDS011;4926;42.670;23.316;2023-07-13T11:04:40;16.58;;;5.70;;
9773;SDS011;4926;42.670;23.316;2023-07-13T11:07:10;7.47;;;5.47;;
9773;SDS011;4926;42.670;23.316;2023-07-13T11:09:52;5.93;;;5.28;;
9773;SDS011;4926;42.670;23.316;2023-07-13T11:12:27;6.47;;;4.60;;
9773;SDS011;4926;42.670;23.316;2023-07-13T11:15:26;9.43;;;5.43;;
9773;SDS011;4926;42.670;23.316;2023-07-13T11:17:59;9.02;;;4.80;;
9773;SDS011;4926;42.670;23.316;2023-07-13T11:20:39;6.43;;;5.20;;
9773;SDS011;4926;42.670;23.316;2023-07-13T11:25:57;9.60;;;5.22;;
9773;SDS011;4926;42.670;23.316;2023-07-13T11:28:26;10.48;;;5.57;;
9773;SDS011;4926;42.670;23.316;2023-07-13T11:31:00;12.40;;;5.07;;
9773;SDS011;4926;42.670;23.316;2023-07-13T11:33:52;8.00;;;5.03;;
9773;SDS011;4926;42.670;23.316;2023-07-13T11:36:23;8.73;;;5.43;;
9773;SDS011;4926;42.670;23.316;2023-07-13T11:38:59;8.98;;;5.57;;
9773;SDS011;4926;42.670;23.316;2023-07-13T11:41:31;6.93;;;5.25;;
9773;SDS011;4926;42.670;23.316;2023-07-13T11:44:05;11.32;;;5.60;;
9773;SDS011;4926;42.670;23.316;2023-07-13T11:46:34;8.30;;;5.18;;
9773;SDS011;4926;42.670;23.316;2023-07-13T11:49:07;9.65;;;6.00;;
9773;SDS011;4926;42.670;23.316;2023-07-13T11:51:35;9.88;;;5.60;;
9773;SDS011;4926;42.670;23.316;2023-07-13T11:54:03;7.53;;;5.55;;
9773;SDS011;4926;42.670;23.316;2023-07-13T11:56:41;9.05;;;5.03;;
9773;SDS011;4926;42.670;23.316;2023-07-13T11:59:11;6.75;;;5.05;;
9773;SDS011;4926;42.670;23.316;2023-07-13T12:01:42;10.18;;;5.50;;
9773;SDS011;4926;42.670;23.316;2023-07-13T12:04:14;11.57;;;5.28;;
9773;SDS011;4926;42.670;23.316;2023-07-13T12:06:52;6.28;;;5.03;;
9773;SDS011;4926;42.670;23.316;2023-07-13T12:09:21;11.43;;;5.55;;
9773;SDS011;4926;42.670;23.316;2023-07-13T12:11:50;11.98;;;6.20;;
9773;SDS011;4926;42.670;23.316;2023-07-13T12:14:20;16.40;;;5.70;;
9773;SDS011;4926;42.670;23.316;2023-07-13T12:16:49;10.25;;;5.60;;
9773;SDS011;4926;42.670;23.316;2023-07-13T12:19:18;8.60;;;5.10;;
9773;SDS011;4926;42.670;23.316;2023-07-13T12:21:47;14.73;;;5.32;;
9773;SDS011;4926;42.670;23.316;2023-07-13T12:24:15;10.70;;;5.93;;
9773;SDS011;4926;42.670;23.316;2023-07-13T12:26:50;9.48;;;5.07;;
9773;SDS011;4926;42.670;23.316;2023-07-13T12:29:18;12.52;;;5.32;;
9773;SDS011;4926;42.670;23.316;2023-07-13T12:31:46;9.80;;;5.43;;
9773;SDS011;4926;42.670;23.316;2023-07-13T12:34:15;7.72;;;5.30;;
9773;SDS011;4926;42.670;23.316;2023-07-13T12:36:46;10.73;;;5.50;;
9773;SDS011;4926;42.670;23.316;2023-07-13T12:39:22;9.65;;;4.97;;
9773;SDS011;4926;42.670;23.316;2023-07-13T12:41:54;10.85;;;5.20;;
9773;SDS011;4926;42.670;23.316;2023-07-13T12:44:44;7.22;;;4.90;;
9773;SDS011;4926;42.670;23.316;2023-07-13T12:47:12;8.90;;;5.18;;
9773;SDS011;4926;42.670;23.316;2023-07-13T12:49:47;15.23;;;5.80;;
9773;SDS011;4926;42.670;23.316;2023-07-13T12:52:20;8.68;;;5.53;;
9773;SDS011;4926;42.670;23.316;2023-07-13T12:54:55;13.80;;;6.32;;
9773;SDS011;4926;42.670;23.316;2023-07-13T12:57:23;11.50;;;6.55;;
9773;SDS011;4926;42.670;23.316;2023-07-13T12:59:52;11.38;;;6.32;;
9773;SDS011;4926;42.670;23.316;2023-07-13T13:02:25;12.50;;;6.28;;
9773;SDS011;4926;42.670;23.316;2023-07-13T13:04:56;10.98;;;6.72;;
9773;SDS011;4926;42.670;23.316;2023-07-13T13:07:25;11.85;;;7.03;;
9773;SDS011;4926;42.670;23.316;2023-07-13T13:09:52;5.85;;;5.05;;
9773;SDS011;4926;42.670;23.316;2023-07-13T13:12:20;11.07;;;6.25;;
9773;SDS011;4926;42.670;23.316;2023-07-13T13:14:50;12.90;;;6.47;;
9773;SDS011;4926;42.670;23.316;2023-07-13T13:17:19;10.73;;;6.63;;
9773;SDS011;4926;42.670;23.316;2023-07-13T13:19:49;9.15;;;6.63;;
9773;SDS011;4926;42.670;23.316;2023-07-13T13:22:18;11.48;;;6.00;;
9773;SDS011;4926;42.670;23.316;2023-07-13T13:24:46;12.07;;;6.38;;
9773;SDS011;4926;42.670;23.316;2023-07-13T13:27:15;10.10;;;5.32;;
9773;SDS011;4926;42.670;23.316;2023-07-13T13:29:49;7.05;;;4.95;;
9773;SDS011;4926;42.670;23.316;2023-07-13T13:32:18;7.80;;;5.15;;
9773;SDS011;4926;42.670;23.316;2023-07-13T13:34:45;11.52;;;5.40;;
9773;SDS011;4926;42.670;23.316;2023-07-13T13:37:16;11.48;;;5.10;;
9773;SDS011;4926;42.670;23.316;2023-07-13T13:39:49;10.50;;;5.88;;
9773;SDS011;4926;42.670;23.316;2023-07-13T13:42:23;10.63;;;4.95;;
9773;SDS011;4926;42.670;23.316;2023-07-13T13:44:52;7.88;;;5.78;;
9773;SDS011;4926;42.670;23.316;2023-07-13T13:47:27;14.52;;;4.63;;
9773;SDS011;4926;42.670;23.316;2023-07-13T13:50:01;12.77;;;5.10;;
9773;SDS011;4926;42.670;23.316;2023-07-13T13:52:28;12.85;;;5.20;;
9773;SDS011;4926;42.670;23.316;2023-07-13T13:54:56;12.27;;;5.07;;
9773;SDS011;4926;42.670;23.316;2023-07-13T13:57:23;8.35;;;4.95;;
9773;SDS011;4926;42.670;23.316;2023-07-13T13:59:52;10.45;;;4.85;;
9773;SDS011;4926;42.670;23.316;2023-07-13T14:02:22;13.93;;;5.35;;
9773;SDS011;4926;42.670;23.316;2023-07-13T14:04:54;9.07;;;6.32;;
9773;SDS011;4926;42.670;23.316;2023-07-13T14:07:22;10.40;;;5.85;;
9773;SDS011;4926;42.670;23.316;2023-07-13T14:09:49;9.25;;;5.15;;
9773;SDS011;4926;42.670;23.316;2023-07-13T14:12:17;16.02;;;5.53;;
9773;SDS011;4926;42.670;23.316;2023-07-13T14:14:44;11.48;;;5.22;;
9773;SDS011;4926;42.670;23.316;2023-07-13T14:17:15;10.65;;;4.88;;
9773;SDS011;4926;42.670;23.316;2023-07-13T14:19:48;15.48;;;5.55;;
9773;SDS011;4926;42.670;23.316;2023-07-13T14:22:16;10.63;;;5.43;;
9773;SDS011;4926;42.670;23.316;2023-07-13T14:24:43;15.25;;;5.55;;
9773;SDS011;4926;42.670;23.316;2023-07-13T14:27:10;12.13;;;5.25;;
9773;SDS011;4926;42.670;23.316;2023-07-13T14:29:39;8.65;;;4.95;;
9773;SDS011;4926;42.670;23.316;2023-07-13T14:32:08;11.43;;;5.43;;
9773;SDS011;4926;42.670;23.316;2023-07-13T14:34:37;11.65;;;5.45;;
9773;SDS011;4926;42.670;23.316;2023-07-13T14:37:03;6.90;;;5.30;;
9773;SDS011;4926;42.670;23.316;2023-07-13T14:39:31;10.93;;;5.05;;
9773;SDS011;4926;42.670;23.316;2023-07-13T14:41:58;11.07;;;5.70;;
9773;SDS011;4926;42.670;23.316;2023-07-13T14:44:25;9.27;;;5.57;;
9773;SDS011;4926;42.670;23.316;2023-07-13T14:46:56;10.13;;;5.75;;
9773;SDS011;4926;42.670;23.316;2023-07-13T14:49:25;10.95;;;5.30;;
9773;SDS011;4926;42.670;23.316;2023-07-13T14:51:55;8.57;;;5.03;;
9773;SDS011;4926;42.670;23.316;2023-07-13T14:54:24;11.73;;;5.20;;
9773;SDS011;4926;42.670;23.316;2023-07-13T14:56:51;10.95;;;5.38;;
9773;SDS011;4926;42.670;23.316;2023-07-13T14:59:18;11.50;;;5.10;;
9773;SDS011;4926;42.670;23.316;2023-07-13T15:01:48;12.25;;;5.60;;
9773;SDS011;4926;42.670;23.316;2023-07-13T15:04:17;9.23;;;5.47;;
9773;SDS011;4926;42.670;23.316;2023-07-13T15:06:52;14.57;;;5.30;;
9773;SDS011;4926;42.670;23.316;2023-07-13T15:09:21;15.43;;;5.40;;
9773;SDS011;4926;42.670;23.316;2023-07-13T15:11:49;7.22;;;4.72;;